createdAt,value
2022-11-17T00:01:09.808Z,99489.77
2022-11-17T00:03:40.278Z,99485.30
2022-11-17T00:06:10.717Z,99479.58
2022-11-17T00:08:41.170Z,99480.48
2022-11-17T00:11:11.607Z,99475.69
2022-11-17T00:14:00.178Z,99473.64
2022-11-17T00:16:30.860Z,99472.55
2022-11-17T00:19:19.188Z,99473.89
2022-11-17T00:21:50.412Z,99471.05
2022-11-17T00:24:23.168Z,99473.89
2022-11-17T00:27:02.523Z,99466.59
2022-11-17T00:29:37.339Z,99459.85
2022-11-17T00:32:32.185Z,99454.61
2022-11-17T00:35:02.651Z,99447.95
2022-11-17T00:37:37.195Z,99452.02
2022-11-17T00:40:09.502Z,99450.08
2022-11-17T00:42:40.425Z,99451.09
2022-11-17T00:45:12.979Z,99449.12
2022-11-17T00:47:45.069Z,99447.58
2022-11-17T00:50:16.178Z,99441.57
2022-11-17T00:52:46.774Z,99439.52
2022-11-17T00:55:17.531Z,99435.01
2022-11-17T00:57:48.510Z,99430.63
2022-11-17T01:00:21.296Z,99430.30
2022-11-17T01:02:51.702Z,99427.88
2022-11-17T01:05:22.086Z,99426.50
2022-11-17T01:07:53.795Z,99416.09
2022-11-17T01:10:24.225Z,99413.85
2022-11-17T01:12:54.801Z,99407.88
2022-11-17T01:15:25.302Z,99411.25
2022-11-17T01:17:55.789Z,99407.09
2022-11-17T01:20:26.164Z,99409.84
2022-11-17T01:22:58.017Z,99404.42
2022-11-17T01:25:28.804Z,99410.31
2022-11-17T01:27:59.191Z,99408.73
2022-11-17T01:30:29.665Z,99405.05
2022-11-17T01:33:00.071Z,99397.79
2022-11-17T01:35:31.096Z,99394.54
2022-11-17T01:38:01.477Z,99386.98
2022-11-17T01:40:32.370Z,99385.09
2022-11-17T01:43:02.730Z,99377.00
2022-11-17T01:45:33.539Z,99369.36
2022-11-17T01:48:07.414Z,99361.76
2022-11-17T01:50:40.344Z,99350.82
2022-11-17T01:53:15.383Z,99348.58
2022-11-17T01:55:51.500Z,99344.85
2022-11-17T01:58:25.563Z,99340.05
2022-11-17T02:00:56.975Z,99340.23
2022-11-17T02:03:28.588Z,99339.55
2022-11-17T02:06:06.410Z,99341.34
2022-11-17T02:08:41.302Z,99342.77
2022-11-17T02:11:17.161Z,99346.42
2022-11-17T02:13:48.105Z,99342.80
2022-11-17T02:16:19.327Z,99337.96
2022-11-17T02:18:51.394Z,99332.67
2022-11-17T02:22:00.412Z,99332.32
2022-11-17T02:25:02.179Z,99328.52
2022-11-17T02:28:00.184Z,99323.89
2022-11-17T02:30:35.451Z,99315.91
2022-11-17T02:33:14.039Z,99316.53
2022-11-17T02:35:51.285Z,99311.89
2022-11-17T02:38:29.331Z,99311.93
2022-11-17T02:41:06.243Z,99310.59
2022-11-17T02:44:00.547Z,99308.05
2022-11-17T02:46:33.751Z,99299.27
2022-11-17T02:49:11.181Z,99299.86
2022-11-17T02:51:44.717Z,99294.70
2022-11-17T02:54:15.752Z,99288.54
2022-11-17T02:56:46.612Z,99289.63
2022-11-17T02:59:19.245Z,99286.99
2022-11-17T03:02:30.119Z,99281.80
2022-11-17T03:05:11.991Z,99282.55
2022-11-17T03:08:04.568Z,99281.64
2022-11-17T03:10:49.095Z,99286.36
2022-11-17T03:13:25.480Z,99280.42
2022-11-17T03:16:00.714Z,99275.45
2022-11-17T03:18:36.611Z,99263.77
2022-11-17T03:21:21.361Z,99259.10
2022-11-17T03:23:57.073Z,99250.39
2022-11-17T03:26:31.693Z,99248.48
2022-11-17T03:29:03.045Z,99252.90
2022-11-17T03:31:34.755Z,99249.15
2022-11-17T03:34:08.080Z,99244.39
2022-11-17T03:36:42.990Z,99240.14
2022-11-17T03:39:18.134Z,99234.63
2022-11-17T03:41:50.652Z,99236.25
2022-11-17T03:44:24.548Z,99234.42
2022-11-17T03:46:58.517Z,99227.45
2022-11-17T03:49:36.750Z,99225.26
2022-11-17T03:52:07.863Z,99224.33
2022-11-17T03:54:40.173Z,99223.52
2022-11-17T03:57:18.199Z,99218.95
2022-11-17T03:59:51.285Z,99221.55
2022-11-17T04:02:23.418Z,99220.00
2022-11-17T04:05:09.078Z,99213.54
2022-11-17T04:07:41.726Z,99211.34
2022-11-17T04:10:15.197Z,99206.66
2022-11-17T04:13:03.420Z,99203.31
2022-11-17T04:15:51.888Z,99204.58
2022-11-17T04:18:23.224Z,99195.69
2022-11-17T04:20:55.136Z,99192.40
2022-11-17T04:23:26.702Z,99186.96
2022-11-17T04:26:26.915Z,99187.64
2022-11-17T04:28:57.490Z,99186.23
2022-11-17T04:31:29.557Z,99181.88
2022-11-17T04:34:01.424Z,99178.63
2022-11-17T04:36:33.236Z,99176.29
2022-11-17T04:39:03.784Z,99171.91
2022-11-17T04:41:53.322Z,99169.40
2022-11-17T04:44:26.188Z,99165.66
2022-11-17T04:46:57.534Z,99166.23
2022-11-17T04:49:29.287Z,99168.16
2022-11-17T04:51:59.726Z,99161.02
2022-11-17T04:54:30.076Z,99159.32
2022-11-17T04:57:00.368Z,99159.40
2022-11-17T04:59:30.711Z,99152.31
2022-11-17T05:02:05.625Z,99148.09
2022-11-17T05:04:54.819Z,99144.05
2022-11-17T05:07:25.434Z,99138.02
2022-11-17T05:09:55.998Z,99132.38
2022-11-17T05:12:44.161Z,99134.17
2022-11-17T05:15:35.004Z,99136.65
2022-11-17T05:18:05.674Z,99133.44
2022-11-17T05:20:36.433Z,99141.44
2022-11-17T05:23:24.358Z,99135.23
2022-11-17T05:25:57.174Z,99129.50
2022-11-17T05:28:27.546Z,99133.39
2022-11-17T05:30:59.076Z,99124.60
2022-11-17T05:33:32.401Z,99125.08
2022-11-17T05:36:08.604Z,99118.13
2022-11-17T05:38:38.995Z,99107.70
2022-11-17T05:41:10.012Z,99116.63
2022-11-17T05:43:40.928Z,99114.48
2022-11-17T05:46:11.955Z,99113.00
2022-11-17T05:48:42.638Z,99105.13
2022-11-17T05:51:13.617Z,99107.14
2022-11-17T05:53:44.779Z,99107.06
2022-11-17T05:56:29.364Z,99111.39
2022-11-17T05:59:04.204Z,99113.11
2022-11-17T06:01:37.604Z,99113.61
2022-11-17T06:04:08.942Z,99117.91
2022-11-17T06:06:39.982Z,99115.66
2022-11-17T06:09:10.883Z,99114.95
2022-11-17T06:11:41.601Z,99117.54
2022-11-17T06:14:12.347Z,99125.92
2022-11-17T06:16:47.202Z,99124.80
2022-11-17T06:19:22.539Z,99131.67
2022-11-17T06:22:13.388Z,99132.66
2022-11-17T06:24:45.808Z,99129.34
2022-11-17T06:27:17.966Z,99120.70
2022-11-17T06:29:49.804Z,99121.25
2022-11-17T06:32:21.581Z,99116.86
2022-11-17T06:34:55.995Z,99112.49
2022-11-17T06:37:28.252Z,99114.75
2022-11-17T06:39:59.070Z,99117.16
2022-11-17T06:42:47.654Z,99116.25
2022-11-17T06:45:18.525Z,99121.91
2022-11-17T06:47:49.432Z,99114.88
2022-11-17T06:50:20.682Z,99119.42
2022-11-17T06:52:51.726Z,99111.66
2022-11-17T06:55:22.489Z,99110.38
2022-11-17T06:57:53.766Z,99109.04
2022-11-17T07:00:24.804Z,99112.39
2022-11-17T07:02:59.591Z,99107.72
2022-11-17T07:05:30.773Z,99104.46
2022-11-17T07:08:02.428Z,99102.55
2022-11-17T07:10:34.573Z,99101.48
2022-11-17T07:13:05.701Z,99106.98
2022-11-17T07:15:36.046Z,99104.23
2022-11-17T07:18:06.760Z,99107.18
2022-11-17T07:20:37.799Z,99100.73
2022-11-17T07:23:08.882Z,99097.69
2022-11-17T07:25:39.383Z,99102.48
2022-11-17T07:28:10.210Z,99099.60
2022-11-17T07:30:40.945Z,99105.73
2022-11-17T07:33:11.558Z,99103.56
2022-11-17T07:35:41.965Z,99104.95
2022-11-17T07:38:13.148Z,99096.91
2022-11-17T07:40:43.814Z,99098.78
2022-11-17T07:43:14.916Z,99095.73
2022-11-17T07:45:45.666Z,99096.14
2022-11-17T07:48:16.285Z,99087.95
2022-11-17T07:50:46.976Z,99089.73
2022-11-17T07:53:17.627Z,99089.07
2022-11-17T07:55:48.051Z,99072.16
2022-11-17T07:58:18.432Z,99067.63
2022-11-17T08:00:48.915Z,99076.30
2022-11-17T08:03:19.674Z,99075.09
2022-11-17T08:05:51.009Z,99079.80
2022-11-17T08:08:22.134Z,99084.84
2022-11-17T08:10:52.607Z,99081.22
2022-11-17T08:13:24.215Z,99087.70
2022-11-17T08:16:00.021Z,99084.71
2022-11-17T08:18:31.859Z,99082.27
2022-11-17T08:21:07.375Z,99081.17
2022-11-17T08:23:38.638Z,99071.59
2022-11-17T08:26:11.259Z,99073.79
2022-11-17T08:28:41.992Z,99071.10
2022-11-17T08:31:12.402Z,99068.80
2022-11-17T08:33:43.315Z,99075.68
2022-11-17T08:36:13.672Z,99073.84
2022-11-17T08:38:44.519Z,99078.84
2022-11-17T08:41:15.298Z,99082.05
2022-11-17T08:43:45.622Z,99083.64
2022-11-17T08:46:16.998Z,99081.96
2022-11-17T08:48:48.983Z,99078.80
2022-11-17T08:51:23.287Z,99073.39
2022-11-17T08:53:53.749Z,99069.96
2022-11-17T08:56:24.299Z,99067.09
2022-11-17T08:58:54.740Z,99062.68
2022-11-17T09:01:25.184Z,99061.93
2022-11-17T09:03:55.681Z,99064.34
2022-11-17T09:06:26.325Z,99056.09
2022-11-17T09:08:57.833Z,99048.84
2022-11-17T09:11:28.730Z,99045.25
2022-11-17T09:13:59.471Z,99034.60
2022-11-17T09:16:30.393Z,99023.06
2022-11-17T09:19:02.649Z,99011.90
2022-11-17T09:21:34.134Z,99004.56
2022-11-17T09:24:04.947Z,98994.80
2022-11-17T09:26:35.565Z,98990.48
2022-11-17T09:29:06.340Z,98988.87
2022-11-17T09:31:37.752Z,98978.13
2022-11-17T09:34:08.635Z,98982.42
2022-11-17T09:36:39.063Z,98983.87
2022-11-17T09:39:10.398Z,98985.63
2022-11-17T09:41:44.672Z,98985.54
2022-11-17T09:44:23.445Z,98987.74
2022-11-17T09:47:14.846Z,98998.09
2022-11-17T09:49:58.672Z,98991.65
2022-11-17T09:52:34.433Z,98990.20
2022-11-17T09:55:15.328Z,98989.53
2022-11-17T09:57:49.532Z,98984.74
2022-11-17T10:00:29.116Z,98979.08
2022-11-17T10:03:00.321Z,98987.57
2022-11-17T10:05:32.784Z,98981.40
2022-11-17T10:08:08.323Z,98974.86
2022-11-17T10:10:44.327Z,98971.19
2022-11-17T10:13:23.812Z,98969.19
2022-11-17T10:15:58.542Z,98972.16
2022-11-17T10:18:37.566Z,98972.77
2022-11-17T10:21:10.309Z,98972.77
2022-11-17T10:23:46.846Z,98983.52
2022-11-17T10:26:18.487Z,98989.48
2022-11-17T10:28:49.543Z,98989.95
2022-11-17T10:31:21.099Z,98989.68
2022-11-17T10:33:52.980Z,98988.73
2022-11-17T10:36:26.069Z,98985.47
2022-11-17T10:38:58.809Z,98990.68
2022-11-17T10:41:37.323Z,98989.44
2022-11-17T10:44:16.662Z,98990.30
2022-11-17T10:47:02.454Z,99001.52
2022-11-17T10:49:36.475Z,98997.89
2022-11-17T10:52:18.763Z,98996.27
2022-11-17T10:54:49.865Z,99000.48
2022-11-17T10:57:24.251Z,98986.48
2022-11-17T10:59:58.002Z,98980.11
2022-11-17T11:02:35.101Z,98977.98
2022-11-17T11:05:14.932Z,98978.06
2022-11-17T11:07:45.982Z,98982.27
2022-11-17T11:10:21.274Z,98976.13
2022-11-17T11:12:56.783Z,98974.25
2022-11-17T11:15:32.569Z,98965.54
2022-11-17T11:18:03.092Z,98965.83
2022-11-17T11:20:40.685Z,98960.64
2022-11-17T11:23:21.639Z,98958.40
2022-11-17T11:25:57.708Z,98957.82
2022-11-17T11:28:45.606Z,98958.52
2022-11-17T11:31:28.106Z,98958.29
2022-11-17T11:34:08.596Z,98962.98
2022-11-17T11:36:44.475Z,98956.89
2022-11-17T11:39:30.883Z,98956.17
2022-11-17T11:42:23.721Z,98955.18
2022-11-17T11:45:08.221Z,98949.68
2022-11-17T11:48:02.680Z,98953.05
2022-11-17T11:50:41.580Z,98948.46
2022-11-17T11:53:19.679Z,98950.50
2022-11-17T11:55:56.668Z,98955.54
2022-11-17T11:58:27.184Z,98951.90
2022-11-17T12:01:05.425Z,98954.52
2022-11-17T12:03:44.936Z,98954.42
2022-11-17T12:06:44.064Z,98957.95
2022-11-17T12:09:48.468Z,98952.16
2022-11-17T12:12:21.647Z,98953.27
2022-11-17T12:15:13.582Z,98953.40
2022-11-17T12:18:00.040Z,98952.88
2022-11-17T12:21:04.272Z,98951.55
2022-11-17T12:23:49.516Z,98953.61
2022-11-17T12:26:29.462Z,98951.19
2022-11-17T12:29:30.672Z,98951.93
2022-11-17T12:32:03.133Z,98952.11
2022-11-17T12:34:37.149Z,98954.77
2022-11-17T12:37:26.138Z,98954.73
2022-11-17T12:40:05.068Z,98953.66
2022-11-17T12:42:36.833Z,98953.98
2022-11-17T12:45:12.498Z,98954.43
2022-11-17T12:47:59.134Z,98953.29
2022-11-17T12:50:49.511Z,98954.14
2022-11-17T12:53:38.010Z,98950.57
2022-11-17T12:56:41.077Z,98947.55
2022-11-17T12:59:46.239Z,98946.59
2022-11-17T13:02:53.247Z,98945.80
2022-11-17T13:05:25.736Z,98950.09
2022-11-17T13:08:20.307Z,98952.72
2022-11-17T13:10:53.164Z,98954.11
2022-11-17T13:13:26.308Z,98956.13
2022-11-17T13:15:59.704Z,98949.37
2022-11-17T13:18:34.404Z,98949.75
2022-11-17T13:21:05.791Z,98946.15
2022-11-17T13:23:43.754Z,98945.95
2022-11-17T13:26:20.761Z,98944.91
2022-11-17T13:29:03.006Z,98946.17
2022-11-17T13:31:34.311Z,98948.84
2022-11-17T13:34:14.157Z,98949.92
2022-11-17T13:36:56.878Z,98950.84
2022-11-17T13:39:28.216Z,98951.57
2022-11-17T13:41:59.057Z,98950.12
2022-11-17T13:44:30.185Z,98944.89
2022-11-17T13:47:21.008Z,98942.96
2022-11-17T13:49:52.045Z,98945.17
2022-11-17T13:52:40.442Z,98945.54
2022-11-17T13:55:19.825Z,98946.33
2022-11-17T13:57:59.144Z,98948.08
2022-11-17T14:00:30.302Z,98949.13
2022-11-17T14:03:03.279Z,98949.66
2022-11-17T14:05:35.099Z,98951.04
2022-11-17T14:08:27.060Z,98947.54
2022-11-17T14:11:14.667Z,98950.00
2022-11-17T14:13:47.736Z,98950.05
2022-11-17T14:16:26.505Z,98952.33
2022-11-17T14:19:06.136Z,98952.77
2022-11-17T14:21:36.616Z,98954.23
2022-11-17T14:24:13.912Z,98954.81
2022-11-17T14:26:45.554Z,98958.08
2022-11-17T14:29:16.442Z,98962.16
2022-11-17T14:31:47.299Z,98964.35
2022-11-17T14:34:18.063Z,98969.29
2022-11-17T14:36:51.080Z,98971.47
2022-11-17T14:39:22.137Z,98973.98
2022-11-17T14:41:53.721Z,98971.48
2022-11-17T14:44:24.063Z,98971.83
2022-11-17T14:46:54.424Z,98973.66
2022-11-17T14:49:25.146Z,98972.70
2022-11-17T14:51:59.225Z,98975.06
2022-11-17T14:54:30.117Z,98970.56
2022-11-17T14:57:00.497Z,98972.26
2022-11-17T14:59:31.492Z,98975.52
2022-11-17T15:02:02.455Z,98975.79
2022-11-17T15:04:50.101Z,98974.95
2022-11-17T15:07:21.918Z,98975.13
2022-11-17T15:09:52.892Z,98975.23
2022-11-17T15:12:23.441Z,98974.23
2022-11-17T15:14:57.297Z,98979.63
2022-11-17T15:17:28.759Z,98983.29
2022-11-17T15:19:59.504Z,98986.31
2022-11-17T15:22:29.889Z,98988.21
2022-11-17T15:25:00.538Z,98994.35
2022-11-17T15:27:31.203Z,98998.11
2022-11-17T15:30:02.043Z,99001.54
2022-11-17T15:32:33.143Z,99004.45
2022-11-17T15:35:04.295Z,99004.87
2022-11-17T15:37:35.062Z,99001.23
2022-11-17T15:40:06.404Z,99002.53
2022-11-17T15:42:37.300Z,99007.16
2022-11-17T15:45:09.396Z,99007.42
2022-11-17T15:47:40.271Z,99006.22
2022-11-17T15:50:11.951Z,99003.67
2022-11-17T15:53:02.912Z,99009.22
2022-11-17T15:55:34.393Z,99009.18
2022-11-17T15:58:05.201Z,99003.31
2022-11-17T16:00:40.096Z,98997.92
2022-11-17T16:03:10.962Z,98997.64
2022-11-17T16:05:41.383Z,98994.93
2022-11-17T16:08:12.123Z,98999.44
2022-11-17T16:10:43.132Z,98998.52
2022-11-17T16:13:13.907Z,99004.48
2022-11-17T16:15:44.323Z,99004.48
2022-11-17T16:18:14.716Z,99005.94
2022-11-17T16:20:45.406Z,99006.98
2022-11-17T16:23:16.458Z,99007.74
2022-11-17T16:25:49.253Z,99006.03
2022-11-17T16:28:20.418Z,99010.41
2022-11-17T16:30:50.787Z,99013.11
2022-11-17T16:33:21.203Z,99013.52
2022-11-17T16:35:51.604Z,99015.78
2022-11-17T16:38:22.053Z,99016.48
2022-11-17T16:40:52.630Z,99018.07
2022-11-17T16:43:23.092Z,99018.06
2022-11-17T16:45:53.764Z,99014.36
2022-11-17T16:48:25.426Z,99020.83
2022-11-17T16:50:55.907Z,99019.66
2022-11-17T16:53:26.689Z,99018.04
2022-11-17T16:56:03.582Z,99022.84
2022-11-17T16:58:34.192Z,99019.57
2022-11-17T17:01:13.443Z,99021.23
2022-11-17T17:03:44.667Z,99024.15
2022-11-17T17:06:16.752Z,99025.98
2022-11-17T17:08:47.198Z,99027.39
2022-11-17T17:11:18.308Z,99028.69
2022-11-17T17:13:48.722Z,99035.70
2022-11-17T17:16:21.262Z,99031.48
2022-11-17T17:18:59.070Z,99036.03
2022-11-17T17:21:31.184Z,99033.67
2022-11-17T17:24:01.895Z,99035.98
2022-11-17T17:26:33.603Z,99033.77
2022-11-17T17:29:05.714Z,99034.27
2022-11-17T17:31:38.142Z,99029.10
2022-11-17T17:34:09.954Z,99029.27
2022-11-17T17:36:40.376Z,99028.44
2022-11-17T17:39:11.217Z,99034.64
2022-11-17T17:41:44.298Z,99035.46
2022-11-17T17:44:18.677Z,99038.51
2022-11-17T17:46:49.897Z,99040.22
2022-11-17T17:49:20.352Z,99039.69
2022-11-17T17:51:50.777Z,99046.98
2022-11-17T17:54:24.039Z,99049.19
2022-11-17T17:56:57.324Z,99048.95
2022-11-17T17:59:27.672Z,99042.80
2022-11-17T18:01:58.104Z,99045.06
2022-11-17T18:04:29.601Z,99045.76
2022-11-17T18:07:01.652Z,99049.89
2022-11-17T18:09:32.628Z,99058.58
2022-11-17T18:12:03.032Z,99056.03
2022-11-17T18:14:33.609Z,99060.80
2022-11-17T18:17:04.545Z,99060.17
2022-11-17T18:19:35.024Z,99061.05
2022-11-17T18:22:05.536Z,99062.67
2022-11-17T18:24:36.207Z,99057.76
2022-11-17T18:27:07.571Z,99061.01
2022-11-17T18:29:37.931Z,99067.30
2022-11-17T18:32:08.847Z,99071.08
2022-11-17T18:34:41.863Z,99071.25
2022-11-17T18:37:13.076Z,99075.76
2022-11-17T18:39:43.961Z,99078.17
2022-11-17T18:42:14.707Z,99078.48
2022-11-17T18:44:45.088Z,99084.29
2022-11-17T18:47:15.631Z,99082.91
2022-11-17T18:49:46.566Z,99084.55
2022-11-17T18:52:17.103Z,99081.45
2022-11-17T18:54:47.618Z,99082.75
2022-11-17T18:57:19.151Z,99085.95
2022-11-17T18:59:49.755Z,99083.94
2022-11-17T19:02:20.511Z,99082.05
2022-11-17T19:04:51.208Z,99081.83
2022-11-17T19:07:21.679Z,99081.84
2022-11-17T19:09:52.086Z,99076.22
2022-11-17T19:12:22.476Z,99083.17
2022-11-17T19:14:54.612Z,99085.76
2022-11-17T19:17:25.527Z,99090.52
2022-11-17T19:19:56.565Z,99091.19
2022-11-17T19:22:27.634Z,99091.07
2022-11-17T19:24:58.075Z,99091.28
2022-11-17T19:27:28.579Z,99090.85
2022-11-17T19:29:59.594Z,99088.69
2022-11-17T19:32:30.289Z,99085.94
2022-11-17T19:35:11.784Z,99089.95
2022-11-17T19:37:45.545Z,99087.86
2022-11-17T19:40:17.154Z,99094.31
2022-11-17T19:42:50.027Z,99093.30
2022-11-17T19:45:20.999Z,99098.62
2022-11-17T19:47:51.349Z,99098.73
2022-11-17T19:50:22.167Z,99106.20
2022-11-17T19:52:53.111Z,99113.24
2022-11-17T19:55:24.127Z,99111.79
2022-11-17T19:57:55.202Z,99112.44
2022-11-17T20:00:25.627Z,99108.30
2022-11-17T20:02:56.346Z,99109.67
2022-11-17T20:05:27.398Z,99111.30
2022-11-17T20:07:58.296Z,99120.94
2022-11-17T20:10:28.716Z,99122.48
2022-11-17T20:13:00.335Z,99125.20
2022-11-17T20:15:35.005Z,99128.73
2022-11-17T20:18:05.791Z,99123.55
2022-11-17T20:20:37.450Z,99125.56
2022-11-17T20:23:08.562Z,99130.23
2022-11-17T20:25:41.371Z,99125.56
2022-11-17T20:28:12.082Z,99124.11
2022-11-17T20:30:43.251Z,99122.95
2022-11-17T20:33:13.901Z,99127.84
2022-11-17T20:35:44.986Z,99127.09
2022-11-17T20:38:16.014Z,99127.23
2022-11-17T20:40:46.609Z,99123.52
2022-11-17T20:43:17.036Z,99124.52
2022-11-17T20:45:51.060Z,99116.80
2022-11-17T20:48:21.973Z,99116.81
2022-11-17T20:51:00.003Z,99119.31
2022-11-17T20:53:29.426Z,99116.89
2022-11-17T20:56:00.612Z,99122.70
2022-11-17T20:58:32.381Z,99129.04
2022-11-17T21:01:09.825Z,99133.71
2022-11-17T21:03:40.892Z,99138.75
2022-11-17T21:06:12.065Z,99140.92
2022-11-17T21:08:44.801Z,99143.81
2022-11-17T21:11:36.744Z,99143.34
2022-11-17T21:14:08.612Z,99148.69
2022-11-17T21:16:40.893Z,99150.44
2022-11-17T21:19:11.364Z,99154.39
2022-11-17T21:21:41.800Z,99157.19
2022-11-17T21:24:12.753Z,99162.90
2022-11-17T21:26:43.195Z,99160.65
2022-11-17T21:29:14.249Z,99162.23
2022-11-17T21:31:44.872Z,99162.20
2022-11-17T21:34:17.714Z,99162.70
2022-11-17T21:36:48.140Z,99165.95
2022-11-17T21:39:19.873Z,99166.34
2022-11-17T21:41:50.667Z,99168.34
2022-11-17T21:44:21.526Z,99175.00
2022-11-17T21:46:52.148Z,99174.76
2022-11-17T21:49:22.898Z,99174.38
2022-11-17T21:51:53.248Z,99175.93
2022-11-17T21:54:24.068Z,99181.39
2022-11-17T21:56:54.504Z,99185.36
2022-11-17T21:59:25.716Z,99190.07
2022-11-17T22:01:56.838Z,99190.77
2022-11-17T22:04:27.901Z,99193.42
2022-11-17T22:06:58.341Z,99194.37
2022-11-17T22:09:29.204Z,99193.69
2022-11-17T22:12:00.070Z,99201.86
2022-11-17T22:14:30.560Z,99205.91
2022-11-17T22:17:01.664Z,99210.34
2022-11-17T22:19:33.762Z,99212.09
2022-11-17T22:22:04.213Z,99213.25
2022-11-17T22:24:35.020Z,99213.20
2022-11-17T22:27:05.936Z,99220.42
2022-11-17T22:29:37.008Z,99223.13
2022-11-17T22:32:07.749Z,99222.59
2022-11-17T22:34:38.695Z,99223.30
2022-11-17T22:37:09.122Z,99227.56
2022-11-17T22:39:39.929Z,99228.27
2022-11-17T22:42:10.839Z,99230.27
2022-11-17T22:44:41.654Z,99237.98
2022-11-17T22:47:12.040Z,99241.20
2022-11-17T22:49:42.852Z,99240.64
2022-11-17T22:52:15.039Z,99243.27
2022-11-17T22:54:45.785Z,99252.36
2022-11-17T22:57:16.589Z,99253.45
2022-11-17T22:59:47.541Z,99257.98
2022-11-17T23:02:18.152Z,99258.41
2022-11-17T23:04:48.831Z,99260.59
2022-11-17T23:07:19.338Z,99262.21
2022-11-17T23:09:50.738Z,99263.25
2022-11-17T23:12:21.293Z,99265.71
2022-11-17T23:14:52.361Z,99265.34
2022-11-17T23:17:23.113Z,99261.63
2022-11-17T23:19:53.911Z,99261.66
2022-11-17T23:22:24.279Z,99259.37
2022-11-17T23:24:55.322Z,99255.95
2022-11-17T23:27:25.939Z,99261.24
2022-11-17T23:29:56.923Z,99260.61
2022-11-17T23:32:27.692Z,99263.37
2022-11-17T23:34:58.057Z,99265.70
2022-11-17T23:37:28.965Z,99268.40
2022-11-17T23:39:59.718Z,99267.40
2022-11-17T23:42:32.655Z,99269.69
2022-11-17T23:45:03.956Z,99276.70
2022-11-17T23:47:34.572Z,99272.19
2022-11-17T23:50:05.209Z,99277.53
2022-11-17T23:52:35.659Z,99278.20
2022-11-17T23:55:07.075Z,99279.77
2022-11-17T23:57:37.792Z,99283.15
